Hauptseite
METAR-TAF:

METAR-TAF

Flughäfen :

Ingolstadt, Deutschland

Fliegerhorst Ingolstadt/Manching

Breite: 48-43N, Länge: 011-32E, Höhe: 367 m

Beobachtung

Neuester Wetterbericht von vor 1 Stunde und 0 Minuten, um 10:20 UTC
Wind 1 kt aus Nord
Temperatur 5°C
Luftfeuchtigkeit 81%
Luftdruck 1014 hPa
Sichtweite 10 km oder mehr
Durchbrochene Bewölkung in der Höhe von 25000 ft

METAR: ETSI 231020Z 35001KT 9999 BKN250 05/02 Q1014 BLU+BLU+

Zeit: 12:20 (11:20 UTC)

Prognose

Neuester Wetterbericht von vor 3 Stunden und 5 Minuten, um 08:15 UTC
Gültige Prognose vom 23 um 09 UTC bis 23 um 18 UTC
Wind 5 kt aus West/Südwest
Sichtweite 10 km oder mehr
Durchbrochene Bewölkung in der Höhe von 25000 ft

TAF: ETSI 230815Z 2309/2318 25005KT 9999 NSW BKN250

Wetterbeobachtungen und Prognosen von mehr als 4000 Flughäfen (METAR und TAF Bericht).

Die verfügbaren Stationen werden durch gelbe und rote Markierungen auf der Karte dargestellt.

Führen Sie die Maus auf sie, um den Namen der Station zu sehen.

Darauf klicken, um die Beobachtung von Wetterbeobachtungen und Prognosen zu sehen.

Um die Karte zu ändern : klicken Sie auf den grünen Tasten mit einem schwarzen Kreuz Zum Vergrößern, auf den grünen Button mit einem Gedankenstrich zu verkleinern, oder auf die grünen Pfeile für benachbarte Karten.


METAR-TAF: